createdAt,value
2023-03-05T00:02:07.116Z,-1.04
2023-03-05T00:04:39.467Z,-1.20
2023-03-05T00:07:09.174Z,-1.05
2023-03-05T00:09:36.070Z,-1.09
2023-03-05T00:12:03.877Z,-1.19
2023-03-05T00:14:30.469Z,-1.10
2023-03-05T00:16:57.130Z,-1.32
2023-03-05T00:19:24.730Z,-1.13
2023-03-05T00:21:51.416Z,-1.12
2023-03-05T00:24:19.044Z,-1.16
2023-03-05T00:26:46.861Z,-1.21
2023-03-05T00:29:18.588Z,-1.27
2023-03-05T00:31:45.439Z,-1.30
2023-03-05T00:34:16.979Z,-1.22
2023-03-05T00:36:46.812Z,-1.29
2023-03-05T00:39:13.999Z,-1.25
2023-03-05T00:41:40.852Z,-1.25
2023-03-05T00:44:08.054Z,-1.28
2023-03-05T00:46:34.781Z,-1.31
2023-03-05T00:49:01.420Z,-1.36
2023-03-05T00:51:28.247Z,-1.34
2023-03-05T00:53:54.931Z,-1.27
2023-03-05T00:56:22.531Z,-1.28
2023-03-05T00:58:49.347Z,-1.38
2023-03-05T01:01:16.363Z,-1.42
2023-03-05T01:03:43.203Z,-1.43
2023-03-05T01:06:13.173Z,-1.43
2023-03-05T01:08:40.257Z,-1.45
2023-03-05T01:11:09.256Z,-1.46
2023-03-05T01:13:36.753Z,-1.50
2023-03-05T01:16:03.858Z,-1.48
2023-03-05T01:18:30.531Z,-1.50
2023-03-05T01:20:57.260Z,-1.46
2023-03-05T01:23:23.995Z,-1.46
2023-03-05T01:25:58.358Z,-1.48
2023-03-05T01:28:26.475Z,-1.49
2023-03-05T01:30:53.126Z,-1.48
2023-03-05T01:33:19.957Z,-1.55
2023-03-05T01:35:47.848Z,-1.52
2023-03-05T01:38:15.468Z,-1.54
2023-03-05T01:40:43.694Z,-1.55
2023-03-05T01:43:13.054Z,-1.57
2023-03-05T01:46:11.825Z,-1.57
2023-03-05T01:48:40.585Z,-1.55
2023-03-05T01:51:07.586Z,-1.59
2023-03-05T01:53:34.460Z,-1.56
2023-03-05T01:56:01.649Z,-1.54
2023-03-05T01:58:28.623Z,-1.51
2023-03-05T02:00:55.715Z,-1.50
2023-03-05T02:03:23.909Z,-1.60
2023-03-05T02:05:50.495Z,-1.54
2023-03-05T02:08:20.588Z,-1.52
2023-03-05T02:10:50.820Z,-1.51
2023-03-05T02:13:25.778Z,-1.65
2023-03-05T02:15:54.163Z,-1.53
2023-03-05T02:18:22.826Z,-1.56
2023-03-05T02:20:56.760Z,-1.63
2023-03-05T02:23:26.843Z,-1.54
2023-03-05T02:25:54.254Z,-1.58
2023-03-05T02:28:49.616Z,-1.51
2023-03-05T02:31:20.129Z,-1.51
2023-03-05T02:33:49.881Z,-1.57
2023-03-05T02:36:18.019Z,-1.62
2023-03-05T02:38:45.660Z,-1.64
2023-03-05T02:41:12.825Z,-1.62
2023-03-05T02:43:39.535Z,-1.68
2023-03-05T02:46:06.706Z,-1.66
2023-03-05T02:48:33.848Z,-1.72
2023-03-05T02:51:02.335Z,-1.75
2023-03-05T02:53:28.969Z,-1.69
2023-03-05T02:55:55.560Z,-1.69
2023-03-05T02:58:22.174Z,-1.64
2023-03-05T03:00:48.853Z,-1.64
2023-03-05T03:03:16.526Z,-1.69
2023-03-05T03:05:43.242Z,-1.69
2023-03-05T03:08:10.512Z,-1.65
2023-03-05T03:10:37.714Z,-1.65
2023-03-05T03:13:04.431Z,-1.67
2023-03-05T03:15:31.117Z,-1.78
2023-03-05T03:17:57.696Z,-1.70
2023-03-05T03:20:25.009Z,-1.77
2023-03-05T03:22:51.631Z,-1.76
2023-03-05T03:25:21.607Z,-1.73
2023-03-05T03:27:48.700Z,-1.73
2023-03-05T03:30:15.983Z,-1.74
2023-03-05T03:32:42.992Z,-1.71
2023-03-05T03:35:11.430Z,-1.77
2023-03-05T03:37:38.134Z,-1.75
2023-03-05T03:40:06.448Z,-1.87
2023-03-05T03:42:33.414Z,-1.78
2023-03-05T03:45:00.635Z,-1.78
2023-03-05T03:47:29.848Z,-1.95
2023-03-05T03:49:57.075Z,-1.73
2023-03-05T03:52:23.697Z,-1.79
2023-03-05T03:54:52.438Z,-1.82
2023-03-05T03:57:19.313Z,-1.78
2023-03-05T03:59:46.948Z,-1.78
2023-03-05T04:02:14.005Z,-1.79
2023-03-05T04:04:40.722Z,-1.79
2023-03-05T04:07:07.421Z,-1.74
2023-03-05T04:09:34.064Z,-1.81
2023-03-05T04:12:00.929Z,-1.79
2023-03-05T04:14:27.518Z,-1.84
2023-03-05T04:16:54.320Z,-1.95
2023-03-05T04:19:21.365Z,-1.86
2023-03-05T04:21:47.959Z,-1.95
2023-03-05T04:24:15.296Z,-1.90
2023-03-05T04:26:41.982Z,-1.91
2023-03-05T04:29:08.597Z,-1.93
2023-03-05T04:31:37.229Z,-2.14
2023-03-05T04:34:04.760Z,-2.07
2023-03-05T04:36:31.439Z,-2.04
2023-03-05T04:38:57.980Z,-2.02
2023-03-05T04:41:24.740Z,-2.06
2023-03-05T04:43:52.268Z,-2.03
2023-03-05T04:46:18.941Z,-1.99
2023-03-05T04:48:45.642Z,-1.95
2023-03-05T04:51:12.341Z,-2.06
2023-03-05T04:53:39.024Z,-2.08
2023-03-05T04:56:06.060Z,-2.19
2023-03-05T04:58:32.851Z,-2.25
2023-03-05T05:01:04.025Z,-2.07
2023-03-05T05:03:30.961Z,-2.05
2023-03-05T05:05:59.226Z,-2.07
2023-03-05T05:08:26.792Z,-2.11
2023-03-05T05:11:02.297Z,-2.20
2023-03-05T05:13:29.651Z,-2.23
2023-03-05T05:15:56.919Z,-2.25
2023-03-05T05:18:24.759Z,-2.33
2023-03-05T05:20:51.885Z,-2.38
2023-03-05T05:23:18.775Z,-2.43
2023-03-05T05:25:45.717Z,-2.38
2023-03-05T05:28:13.086Z,-2.37
2023-03-05T05:30:39.656Z,-2.33
2023-03-05T05:33:06.271Z,-2.28
2023-03-05T05:35:33.188Z,-2.33
2023-03-05T05:37:59.719Z,-2.32
2023-03-05T05:40:26.309Z,-2.31
2023-03-05T05:42:53.029Z,-2.26
2023-03-05T05:45:20.035Z,-2.31
2023-03-05T05:47:46.721Z,-2.34
2023-03-05T05:50:13.832Z,-2.31
2023-03-05T05:52:40.691Z,-2.26
2023-03-05T05:55:07.684Z,-2.22
2023-03-05T05:57:35.623Z,-2.23
2023-03-05T06:00:02.566Z,-2.19
2023-03-05T06:02:29.203Z,-2.28
2023-03-05T06:04:58.253Z,-2.23
2023-03-05T06:07:25.026Z,-2.25
2023-03-05T06:09:51.684Z,-2.30
2023-03-05T06:12:18.395Z,-2.28
2023-03-05T06:14:45.009Z,-2.27
2023-03-05T06:17:14.815Z,-2.28
2023-03-05T06:19:44.643Z,-2.28
2023-03-05T06:22:11.759Z,-2.26
2023-03-05T06:24:38.886Z,-2.15
2023-03-05T06:27:06.201Z,-2.09
2023-03-05T06:29:32.941Z,-2.14
2023-03-05T06:32:00.910Z,-2.26
2023-03-05T06:34:27.610Z,-2.08
2023-03-05T06:36:54.217Z,-2.04
2023-03-05T06:39:21.832Z,-2.16
2023-03-05T06:41:51.996Z,-2.01
2023-03-05T06:44:31.892Z,-1.92
2023-03-05T06:46:58.712Z,-1.86
2023-03-05T06:49:25.557Z,-1.85
2023-03-05T06:51:52.073Z,-1.85
2023-03-05T06:54:19.782Z,-1.83
2023-03-05T06:56:47.306Z,-1.75
2023-03-05T06:59:21.761Z,-1.70
2023-03-05T07:01:48.604Z,-1.65
2023-03-05T07:04:15.959Z,-1.65
2023-03-05T07:06:42.874Z,-1.58
2023-03-05T07:09:14.462Z,-1.57
2023-03-05T07:11:41.635Z,-1.64
2023-03-05T07:14:08.668Z,-1.51
2023-03-05T07:16:35.596Z,-1.55
2023-03-05T07:19:05.101Z,-1.64
2023-03-05T07:21:33.902Z,-1.45
2023-03-05T07:24:02.062Z,-1.34
2023-03-05T07:26:28.991Z,-1.30
2023-03-05T07:28:56.007Z,-1.37
2023-03-05T07:31:27.569Z,-1.28
2023-03-05T07:33:55.459Z,-1.24
2023-03-05T07:36:22.068Z,-1.29
2023-03-05T07:38:48.696Z,-1.21
2023-03-05T07:41:21.235Z,-1.42
2023-03-05T07:43:53.368Z,-1.22
2023-03-05T07:46:23.194Z,-1.29
2023-03-05T07:48:50.227Z,-1.13
2023-03-05T07:51:20.216Z,-1.02
2023-03-05T07:53:49.043Z,-1.04
2023-03-05T07:56:23.590Z,-0.94
2023-03-05T07:58:50.528Z,-0.84
2023-03-05T08:01:17.410Z,-0.98
2023-03-05T08:03:44.711Z,-0.95
2023-03-05T08:06:12.766Z,-0.94
2023-03-05T08:08:39.737Z,-0.77
2023-03-05T08:11:08.816Z,-0.78
2023-03-05T08:13:35.674Z,-0.78
2023-03-05T08:16:07.651Z,-0.73
2023-03-05T08:18:34.394Z,-0.67
2023-03-05T08:21:01.442Z,-0.62
2023-03-05T08:23:28.608Z,-0.64
2023-03-05T08:25:55.901Z,-0.52
2023-03-05T08:28:25.652Z,-0.51
2023-03-05T08:30:52.449Z,-0.44
2023-03-05T08:33:19.250Z,-0.51
2023-03-05T08:35:45.951Z,-0.29
2023-03-05T08:38:12.678Z,-0.21
2023-03-05T08:40:39.252Z,-0.13
2023-03-05T08:43:07.391Z,-0.16
2023-03-05T08:45:37.074Z,-0.13
2023-03-05T08:48:05.850Z,-0.02
2023-03-05T08:50:32.413Z,-0.13
2023-03-05T08:53:00.244Z,-0.22
2023-03-05T08:55:26.831Z,-0.32
2023-03-05T08:57:53.515Z,-0.33
2023-03-05T09:00:20.505Z,-0.23
2023-03-05T09:02:47.257Z,-0.22
2023-03-05T09:05:14.990Z,-0.29
2023-03-05T09:07:41.711Z,-0.26
2023-03-05T09:10:11.754Z,-0.26
2023-03-05T09:12:38.472Z,0.01
2023-03-05T09:15:09.916Z,0.08
2023-03-05T09:17:38.157Z,0.14
2023-03-05T09:20:06.555Z,-0.07
2023-03-05T09:22:33.159Z,0.10
2023-03-05T09:24:59.798Z,0.00
2023-03-05T09:27:26.479Z,0.03
2023-03-05T09:29:53.349Z,0.01
2023-03-05T09:32:20.222Z,-0.02
2023-03-05T09:34:46.869Z,-0.05
2023-03-05T09:37:13.538Z,-0.12
2023-03-05T09:39:44.234Z,-0.14
2023-03-05T09:42:31.648Z,-0.22
2023-03-05T09:44:58.235Z,-0.20
2023-03-05T09:47:43.196Z,-0.12
2023-03-05T09:50:32.607Z,0.10
2023-03-05T09:53:17.933Z,0.22
2023-03-05T09:55:47.517Z,0.41
2023-03-05T09:58:23.075Z,0.56
2023-03-05T10:00:54.648Z,0.59
2023-03-05T10:03:32.240Z,0.72
2023-03-05T10:06:05.863Z,0.56
2023-03-05T10:08:49.146Z,0.48
2023-03-05T10:11:24.744Z,0.41
2023-03-05T10:13:52.345Z,0.29
2023-03-05T10:16:30.903Z,0.20
2023-03-05T10:19:13.871Z,-0.02
2023-03-05T10:21:46.048Z,-0.03
2023-03-05T10:24:40.890Z,-0.15
2023-03-05T10:27:39.320Z,-0.22
2023-03-05T10:30:24.889Z,-0.26
2023-03-05T10:33:15.303Z,-0.32
2023-03-05T10:35:44.703Z,-0.35
2023-03-05T10:38:24.647Z,-0.42
2023-03-05T10:41:04.481Z,-0.52
2023-03-05T10:43:54.529Z,-0.54
2023-03-05T10:46:25.332Z,-0.57
2023-03-05T10:49:05.430Z,-0.59
2023-03-05T10:51:32.060Z,-0.64
2023-03-05T10:54:04.854Z,-0.69
2023-03-05T10:56:32.057Z,-0.73
2023-03-05T10:58:58.652Z,-0.65
2023-03-05T11:01:28.178Z,-0.56
2023-03-05T11:04:01.483Z,-0.50
2023-03-05T11:06:31.434Z,-0.39
2023-03-05T11:09:21.531Z,-0.31
2023-03-05T11:12:00.331Z,-0.25
2023-03-05T11:14:33.240Z,-0.19
2023-03-05T11:17:03.011Z,-0.13
2023-03-05T11:19:35.664Z,-0.13
2023-03-05T11:22:08.589Z,-0.12
2023-03-05T11:24:35.176Z,-0.13
2023-03-05T11:27:01.900Z,-0.17
2023-03-05T11:29:33.791Z,-0.24
2023-03-05T11:32:25.987Z,-0.26
2023-03-05T11:34:54.420Z,-0.26
2023-03-05T11:37:29.623Z,-0.33
2023-03-05T11:40:19.147Z,-0.44
2023-03-05T11:42:53.119Z,-0.45
2023-03-05T11:45:20.038Z,-0.48
2023-03-05T11:47:53.043Z,-0.54
2023-03-05T11:50:29.482Z,-0.57
2023-03-05T11:53:12.023Z,-0.50
2023-03-05T11:55:51.944Z,-0.47
2023-03-05T11:58:46.472Z,-0.34
2023-03-05T12:01:19.162Z,-0.10
2023-03-05T12:03:46.666Z,0.03
2023-03-05T12:06:13.255Z,0.27
2023-03-05T12:08:45.181Z,0.33
2023-03-05T12:11:20.009Z,0.40
2023-03-05T12:13:52.441Z,0.33
2023-03-05T12:16:35.145Z,0.54
2023-03-05T12:19:28.477Z,0.55
2023-03-05T12:21:55.641Z,0.56
2023-03-05T12:24:27.982Z,0.57
2023-03-05T12:26:59.507Z,0.55
2023-03-05T12:30:05.267Z,0.51
2023-03-05T12:32:32.078Z,0.46
2023-03-05T12:35:05.436Z,0.33
2023-03-05T12:37:32.027Z,0.20
2023-03-05T12:40:20.372Z,0.28
2023-03-05T12:43:02.234Z,0.32
2023-03-05T12:45:32.526Z,0.28
2023-03-05T12:47:59.307Z,0.32
2023-03-05T12:50:29.048Z,0.30
2023-03-05T12:53:11.036Z,0.20
2023-03-05T12:55:56.005Z,0.24
2023-03-05T12:58:39.648Z,0.07
2023-03-05T13:01:33.217Z,0.20
2023-03-05T13:04:17.389Z,0.27
2023-03-05T13:06:44.100Z,0.30
2023-03-05T13:09:28.872Z,0.42
2023-03-05T13:11:56.504Z,0.49
2023-03-05T13:14:42.401Z,0.52
2023-03-05T13:17:29.357Z,0.65
2023-03-05T13:20:07.125Z,0.82
2023-03-05T13:22:33.911Z,1.11
2023-03-05T13:25:10.764Z,1.32
2023-03-05T13:27:39.347Z,1.23
2023-03-05T13:30:17.406Z,1.03
2023-03-05T13:32:44.152Z,1.03
2023-03-05T13:35:15.479Z,0.85
2023-03-05T13:37:44.840Z,0.69
2023-03-05T13:40:32.329Z,0.58
2023-03-05T13:43:18.334Z,0.50
2023-03-05T13:45:53.921Z,0.33
2023-03-05T13:48:20.739Z,0.10
2023-03-05T13:50:55.877Z,0.18
2023-03-05T13:53:28.472Z,0.18
2023-03-05T13:56:01.592Z,-0.27
2023-03-05T13:58:41.888Z,0.20
2023-03-05T14:01:36.829Z,0.30
2023-03-05T14:04:12.374Z,0.30
2023-03-05T14:07:08.065Z,0.37
2023-03-05T14:09:37.461Z,0.30
2023-03-05T14:12:27.303Z,0.16
2023-03-05T14:14:54.207Z,0.06
2023-03-05T14:17:23.799Z,0.01
2023-03-05T14:19:52.276Z,-0.03
2023-03-05T14:22:36.914Z,0.13
2023-03-05T14:25:05.912Z,0.16
2023-03-05T14:27:36.716Z,-0.10
2023-03-05T14:30:05.330Z,-0.18
2023-03-05T14:32:35.157Z,-0.01
2023-03-05T14:35:05.228Z,0.06
2023-03-05T14:37:42.228Z,-0.14
2023-03-05T14:40:12.337Z,-0.07
2023-03-05T14:42:41.569Z,-0.23
2023-03-05T14:45:16.322Z,-0.38
2023-03-05T14:47:43.044Z,-0.55
2023-03-05T14:50:19.535Z,-0.64
2023-03-05T14:52:48.669Z,-0.85
2023-03-05T14:55:21.588Z,-0.74
2023-03-05T14:57:51.684Z,-0.84
2023-03-05T15:00:28.248Z,-0.96
2023-03-05T15:02:55.306Z,-1.09
2023-03-05T15:05:22.091Z,-1.05
2023-03-05T15:07:51.564Z,-1.11
2023-03-05T15:10:22.140Z,-1.33
2023-03-05T15:12:50.489Z,-1.17
2023-03-05T15:15:18.462Z,-1.14
2023-03-05T15:17:51.763Z,-1.18
2023-03-05T15:20:21.625Z,-1.20
2023-03-05T15:22:48.557Z,-1.42
2023-03-05T15:25:16.099Z,-1.14
2023-03-05T15:27:42.921Z,-1.21
2023-03-05T15:30:22.421Z,-1.05
2023-03-05T15:32:50.898Z,-1.06
2023-03-05T15:35:19.734Z,-1.05
2023-03-05T15:37:47.348Z,-0.99
2023-03-05T15:40:14.624Z,-0.99
2023-03-05T15:42:41.850Z,-1.02
2023-03-05T15:45:09.140Z,-0.98
2023-03-05T15:47:35.826Z,-1.05
2023-03-05T15:50:02.564Z,-1.00
2023-03-05T15:52:29.199Z,-1.03
2023-03-05T15:54:56.066Z,-1.03
2023-03-05T15:57:22.799Z,-1.13
2023-03-05T15:59:51.162Z,-1.17
2023-03-05T16:02:19.223Z,-1.15
2023-03-05T16:04:46.214Z,-1.15
2023-03-05T16:07:14.981Z,-1.18
2023-03-05T16:09:48.235Z,-1.29
2023-03-05T16:12:21.836Z,-1.09
2023-03-05T16:14:51.002Z,-1.12
2023-03-05T16:17:20.963Z,-1.30
2023-03-05T16:19:52.511Z,-1.24
2023-03-05T16:22:19.303Z,-1.23
2023-03-05T16:24:45.897Z,-1.22
2023-03-05T16:27:12.599Z,-1.39
2023-03-05T16:29:39.360Z,-1.11
2023-03-05T16:32:07.374Z,-1.22
2023-03-05T16:34:34.685Z,-1.15
2023-03-05T16:37:06.881Z,-1.28
2023-03-05T16:39:33.713Z,-1.21
2023-03-05T16:42:00.368Z,-1.22
2023-03-05T16:44:27.125Z,-1.29
2023-03-05T16:46:54.150Z,-1.30
2023-03-05T16:49:21.590Z,-1.15
2023-03-05T16:51:48.546Z,-1.12
2023-03-05T16:54:15.239Z,-1.36
2023-03-05T16:56:41.978Z,-1.21
2023-03-05T16:59:08.630Z,-1.19
2023-03-05T17:01:35.340Z,-1.40
2023-03-05T17:04:02.327Z,-1.26
2023-03-05T17:06:31.104Z,-1.27
2023-03-05T17:08:58.369Z,-1.30
2023-03-05T17:11:25.983Z,-1.28
2023-03-05T17:13:52.666Z,-1.30
2023-03-05T17:16:21.242Z,-1.34
2023-03-05T17:18:48.874Z,-1.41
2023-03-05T17:21:15.854Z,-1.34
2023-03-05T17:23:44.123Z,-1.38
2023-03-05T17:26:14.660Z,-1.43
2023-03-05T17:28:42.052Z,-1.50
2023-03-05T17:31:08.822Z,-1.56
2023-03-05T17:33:36.841Z,-1.81
2023-03-05T17:36:04.598Z,-1.66
2023-03-05T17:38:31.667Z,-1.63
2023-03-05T17:40:58.340Z,-1.62
2023-03-05T17:43:24.889Z,-1.61
2023-03-05T17:45:51.576Z,-1.59
2023-03-05T17:48:18.142Z,-1.59
2023-03-05T17:50:45.238Z,-1.66
2023-03-05T17:53:12.653Z,-1.67
2023-03-05T17:55:40.208Z,-1.78
2023-03-05T17:58:07.008Z,-1.89
2023-03-05T18:00:34.592Z,-1.79
2023-03-05T18:03:02.191Z,-1.79
2023-03-05T18:05:29.551Z,-1.97
2023-03-05T18:07:56.576Z,-1.99
2023-03-05T18:10:25.999Z,-2.02
2023-03-05T18:12:53.984Z,-1.85
2023-03-05T18:15:23.287Z,-1.77
2023-03-05T18:17:50.973Z,-1.86
2023-03-05T18:20:36.086Z,-1.97
2023-03-05T18:23:04.259Z,-1.95
2023-03-05T18:25:31.713Z,-1.99
2023-03-05T18:28:03.044Z,-1.97
2023-03-05T18:30:30.640Z,-1.99
2023-03-05T18:32:57.828Z,-1.93
2023-03-05T18:35:24.811Z,-1.93
2023-03-05T18:37:52.040Z,-2.08
2023-03-05T18:40:22.149Z,-2.02
2023-03-05T18:42:50.119Z,-2.14
2023-03-05T18:45:18.658Z,-2.11
2023-03-05T18:47:46.913Z,-2.08
2023-03-05T18:50:16.877Z,-2.07
2023-03-05T18:52:43.479Z,-2.05
2023-03-05T18:55:18.582Z,-2.21
2023-03-05T18:57:45.341Z,-2.02
2023-03-05T19:00:17.461Z,-2.17
2023-03-05T19:02:44.933Z,-2.00
2023-03-05T19:05:14.638Z,-2.03
2023-03-05T19:07:41.449Z,-1.99
2023-03-05T19:10:13.682Z,-2.03
2023-03-05T19:13:06.329Z,-1.99
2023-03-05T19:15:33.263Z,-1.93
2023-03-05T19:17:59.908Z,-2.19
2023-03-05T19:20:26.471Z,-1.87
2023-03-05T19:22:55.798Z,-1.95
2023-03-05T19:25:22.601Z,-1.91
2023-03-05T19:27:49.246Z,-1.94
2023-03-05T19:30:17.128Z,-2.20
2023-03-05T19:32:45.670Z,-1.77
2023-03-05T19:35:15.249Z,-1.77
2023-03-05T19:37:42.248Z,-1.77
2023-03-05T19:40:09.600Z,-1.92
2023-03-05T19:42:38.113Z,-1.94
2023-03-05T19:45:06.656Z,-1.78
2023-03-05T19:47:33.234Z,-1.89
2023-03-05T19:50:03.028Z,-2.11
2023-03-05T19:52:29.676Z,-1.89
2023-03-05T19:54:57.207Z,-1.81
2023-03-05T19:57:23.894Z,-1.85
2023-03-05T19:59:53.889Z,-1.78
2023-03-05T20:02:24.178Z,-2.00
2023-03-05T20:04:50.840Z,-1.90
2023-03-05T20:07:17.862Z,-1.82
2023-03-05T20:09:44.583Z,-1.92
2023-03-05T20:12:11.352Z,-1.90
2023-03-05T20:14:38.235Z,-1.99
2023-03-05T20:17:05.029Z,-1.92
2023-03-05T20:19:31.917Z,-1.92
2023-03-05T20:21:58.556Z,-1.98
2023-03-05T20:24:25.250Z,-1.99
2023-03-05T20:26:51.940Z,-1.87
2023-03-05T20:29:18.966Z,-1.87
2023-03-05T20:31:46.661Z,-2.01
2023-03-05T20:34:15.685Z,-1.94
2023-03-05T20:36:42.403Z,-1.86
2023-03-05T20:39:09.368Z,-1.85
2023-03-05T20:41:40.507Z,-1.97
2023-03-05T20:44:08.550Z,-2.00
2023-03-05T20:46:57.556Z,-2.02
2023-03-05T20:49:24.201Z,-2.39
2023-03-05T20:51:51.112Z,-2.02
2023-03-05T20:54:17.882Z,-2.08
2023-03-05T20:56:44.648Z,-2.05
2023-03-05T20:59:11.332Z,-2.05
2023-03-05T21:01:40.130Z,-2.17
2023-03-05T21:04:07.329Z,-2.06
2023-03-05T21:06:34.173Z,-2.21
2023-03-05T21:09:01.352Z,-2.15
2023-03-05T21:11:28.082Z,-2.12
2023-03-05T21:13:54.746Z,-2.37
2023-03-05T21:16:27.545Z,-2.09
2023-03-05T21:18:56.072Z,-2.10
2023-03-05T21:21:22.973Z,-2.15
2023-03-05T21:23:49.745Z,-2.25
2023-03-05T21:26:16.385Z,-2.16
2023-03-05T21:28:43.166Z,-2.25
2023-03-05T21:31:15.259Z,-2.30
2023-03-05T21:33:42.272Z,-2.10
2023-03-05T21:36:09.535Z,-2.00
2023-03-05T21:38:36.919Z,-2.03
2023-03-05T21:41:04.369Z,-2.06
2023-03-05T21:43:31.746Z,-2.16
2023-03-05T21:46:01.007Z,-2.10
2023-03-05T21:48:27.714Z,-2.20
2023-03-05T21:50:55.349Z,-2.11
2023-03-05T21:53:23.116Z,-2.12
2023-03-05T21:56:16.049Z,-2.21
2023-03-05T21:58:42.717Z,-2.15
2023-03-05T22:01:12.741Z,-2.07
2023-03-05T22:03:39.705Z,-2.13
2023-03-05T22:06:10.551Z,-2.11
2023-03-05T22:08:37.016Z,-2.02
2023-03-05T22:11:09.376Z,-2.29
2023-03-05T22:13:37.630Z,-2.15
2023-03-05T22:16:05.926Z,-2.00
2023-03-05T22:18:34.199Z,-2.11
2023-03-05T22:21:01.769Z,-2.02
2023-03-05T22:23:31.477Z,-2.01
2023-03-05T22:26:20.311Z,-2.01
2023-03-05T22:28:48.084Z,-2.10
2023-03-05T22:31:26.877Z,-2.04
2023-03-05T22:33:54.403Z,-2.01
2023-03-05T22:36:21.103Z,-2.19
2023-03-05T22:38:47.844Z,-2.31
2023-03-05T22:41:19.838Z,-2.16
2023-03-05T22:43:47.692Z,-2.22
2023-03-05T22:46:18.678Z,-2.14
2023-03-05T22:48:45.859Z,-2.17
2023-03-05T22:51:13.602Z,-2.16
2023-03-05T22:53:40.802Z,-2.18
2023-03-05T22:56:12.964Z,-2.21
2023-03-05T22:58:40.088Z,-2.19
2023-03-05T23:01:24.150Z,-2.17
2023-03-05T23:04:51.827Z,-2.20
2023-03-05T23:07:24.295Z,-2.21
2023-03-05T23:09:53.485Z,-2.12
2023-03-05T23:12:20.401Z,-2.20
2023-03-05T23:14:47.143Z,-2.23
2023-03-05T23:17:13.803Z,-2.37
2023-03-05T23:19:40.449Z,-2.28
2023-03-05T23:22:09.649Z,-2.22
2023-03-05T23:24:36.284Z,-2.41
2023-03-05T23:27:06.860Z,-2.34
2023-03-05T23:30:16.679Z,-2.31
2023-03-05T23:32:49.462Z,-2.35
2023-03-05T23:35:19.875Z,-2.46
2023-03-05T23:37:46.913Z,-2.45
2023-03-05T23:40:17.254Z,-2.36
2023-03-05T23:42:44.632Z,-2.47
2023-03-05T23:45:13.806Z,-2.36
2023-03-05T23:47:40.775Z,-2.26
2023-03-05T23:50:11.662Z,-2.29
2023-03-05T23:52:38.402Z,-2.45
2023-03-05T23:55:05.471Z,-2.42
2023-03-05T23:57:32.083Z,-2.37
2023-03-05T23:59:59.060Z,-2.38
